Time,TemperatureF,DewpointF,PressureIn,WindDirection,WindDirectionDegrees,WindSpeedMPH,WindSpeedGustMPH,Humidity,HourlyPrecipIn,Conditions,Clouds,dailyrainin,SoftwareType,DateUTC
2013-10-24 00:01:00,50.2,36.0,29.74,North,357,0.0,0.0,58,0.00,,---,0.00,VWS V14.01,2013-10-24 07:01:00,
2013-10-24 00:06:00,50.1,35.9,29.74,North,357,0.0,0.0,58,0.00,,---,0.00,VWS V14.01,2013-10-24 07:06:00,
2013-10-24 00:11:00,50.1,35.9,29.74,North,357,0.0,0.0,58,0.00,,---,0.00,VWS V14.01,2013-10-24 07:11:00,
2013-10-24 00:16:00,49.9,35.7,29.74,North,357,0.0,0.0,58,0.00,,---,0.00,VWS V14.01,2013-10-24 07:16:00,
2013-10-24 00:21:00,49.9,35.7,29.74,North,357,0.0,0.0,58,0.00,,---,0.00,VWS V14.01,2013-10-24 07:21:00,
2013-10-24 00:26:00,49.7,35.5,29.74,North,357,0.0,0.0,58,0.00,,---,0.00,VWS V14.01,2013-10-24 07:26:00,
2013-10-24 00:31:00,49.5,35.4,29.74,North,357,0.0,0.0,58,0.00,,---,0.00,VWS V14.01,2013-10-24 07:31:00,
2013-10-24 00:36:00,49.3,35.2,29.74,North,357,0.0,0.0,58,0.00,,---,0.00,VWS V14.01,2013-10-24 07:36:00,
2013-10-24 00:41:00,49.2,35.0,29.74,North,357,0.0,0.0,58,0.00,,---,0.00,VWS V14.01,2013-10-24 07:41:00,
2013-10-24 00:46:00,49.2,35.0,29.74,North,357,0.0,0.0,58,0.00,,---,0.00,VWS V14.01,2013-10-24 07:46:00,
2013-10-24 00:51:00,49.0,34.9,29.74,North,357,0.0,0.0,58,0.00,,---,0.00,VWS V14.01,2013-10-24 07:51:00,
2013-10-24 00:56:00,48.8,34.7,29.74,North,357,0.0,0.0,58,0.00,,---,0.00,VWS V14.01,2013-10-24 07:56:00,
2013-10-24 01:01:00,48.8,34.7,29.74,North,357,0.0,0.0,58,0.00,,---,0.00,VWS V14.01,2013-10-24 08:01:00,
2013-10-24 01:06:00,48.8,34.7,29.74,North,357,0.0,0.0,58,0.00,,---,0.00,VWS V14.01,2013-10-24 08:06:00,
2013-10-24 01:11:00,48.6,35.0,29.74,North,357,0.0,0.0,59,0.00,,---,0.00,VWS V14.01,2013-10-24 08:11:00,
2013-10-24 01:16:00,48.8,35.1,29.74,North,357,0.0,0.0,59,0.00,,---,0.00,VWS V14.01,2013-10-24 08:16:00,
2013-10-24 01:21:00,48.8,35.1,29.74,North,357,0.0,0.0,59,0.00,,---,0.00,VWS V14.01,2013-10-24 08:21:00,
2013-10-24 01:26:00,48.6,35.0,29.74,North,357,0.0,0.0,59,0.00,,---,0.00,VWS V14.01,2013-10-24 08:26:00,
2013-10-24 01:31:00,48.6,35.0,29.74,North,357,0.0,0.0,59,0.00,,---,0.00,VWS V14.01,2013-10-24 08:31:00,
2013-10-24 01:36:00,48.6,35.0,29.74,North,357,0.0,0.0,59,0.00,,---,0.00,VWS V14.01,2013-10-24 08:36:00,
2013-10-24 01:41:00,48.4,34.8,29.74,North,357,0.0,0.0,59,0.00,,---,0.00,VWS V14.01,2013-10-24 08:41:00,
2013-10-24 01:46:00,48.4,34.8,29.74,North,357,0.0,0.0,59,0.00,,---,0.00,VWS V14.01,2013-10-24 08:46:00,
2013-10-24 01:51:00,48.4,35.2,29.74,North,357,0.0,0.0,60,0.00,,---,0.00,VWS V14.01,2013-10-24 08:51:00,
2013-10-24 01:56:00,48.4,35.2,29.74,North,357,0.0,0.0,60,0.00,,---,0.00,VWS V14.01,2013-10-24 08:56:00,
2013-10-24 02:01:00,48.3,35.0,29.74,North,357,0.0,0.0,60,0.00,,---,0.00,VWS V14.01,2013-10-24 09:01:00,
2013-10-24 02:06:00,48.1,34.9,29.74,North,357,0.0,0.0,60,0.00,,---,0.00,VWS V14.01,2013-10-24 09:06:00,
2013-10-24 02:11:00,48.1,34.9,29.74,North,357,0.0,0.0,60,0.00,,---,0.00,VWS V14.01,2013-10-24 09:11:00,
2013-10-24 02:16:00,47.9,34.7,29.74,North,357,0.0,0.0,60,0.00,,---,0.00,VWS V14.01,2013-10-24 09:16:00,
2013-10-24 02:21:00,47.7,34.5,29.74,North,357,0.0,0.0,60,0.00,,---,0.00,VWS V14.01,2013-10-24 09:21:00,
2013-10-24 02:26:00,47.5,34.4,29.74,North,357,0.0,0.0,60,0.00,,---,0.00,VWS V14.01,2013-10-24 09:26:00,
2013-10-24 02:31:00,47.5,34.4,29.74,North,357,0.0,0.0,60,0.00,,---,0.00,VWS V14.01,2013-10-24 09:31:00,
2013-10-24 02:36:00,47.4,34.2,29.74,North,357,0.0,0.0,60,0.00,,---,0.00,VWS V14.01,2013-10-24 09:36:00,
2013-10-24 02:41:00,47.4,34.2,29.74,North,357,0.0,0.0,60,0.00,,---,0.00,VWS V14.01,2013-10-24 09:41:00,
2013-10-24 02:46:00,47.2,34.0,29.74,North,357,0.0,0.0,60,0.00,,---,0.00,VWS V14.01,2013-10-24 09:46:00,
2013-10-24 02:51:00,47.2,34.0,29.74,North,357,0.0,0.0,60,0.00,,---,0.00,VWS V14.01,2013-10-24 09:51:00,
2013-10-24 02:56:00,47.0,33.8,29.74,North,357,0.0,0.0,60,0.00,,---,0.00,VWS V14.01,2013-10-24 09:56:00,
2013-10-24 03:01:00,46.8,33.7,29.77,North,357,0.0,0.0,60,0.00,,---,0.00,VWS V14.01,2013-10-24 10:01:00,
2013-10-24 03:06:00,46.8,33.7,29.77,North,357,0.0,0.0,60,0.00,,---,0.00,VWS V14.01,2013-10-24 10:06:00,
2013-10-24 03:11:00,46.6,33.5,29.74,North,357,0.0,0.0,60,0.00,,---,0.00,VWS V14.01,2013-10-24 10:11:00,
2013-10-24 03:16:00,46.5,33.3,29.74,North,357,0.0,0.0,60,0.00,,---,0.00,VWS V14.01,2013-10-24 10:16:00,
2013-10-24 03:21:00,46.5,33.3,29.74,North,357,0.0,0.0,60,0.00,,---,0.00,VWS V14.01,2013-10-24 10:21:00,
2013-10-24 03:26:00,46.5,33.3,29.74,North,357,0.0,0.0,60,0.00,,---,0.00,VWS V14.01,2013-10-24 10:26:00,
2013-10-24 03:31:00,46.3,33.2,29.74,North,357,0.0,0.0,60,0.00,,---,0.00,VWS V14.01,2013-10-24 10:31:00,
2013-10-24 03:36:00,46.1,33.0,29.74,North,357,0.0,0.0,60,0.00,,---,0.00,VWS V14.01,2013-10-24 10:36:00,
2013-10-24 03:41:00,46.1,33.0,29.74,North,357,0.0,0.0,60,0.00,,---,0.00,VWS V14.01,2013-10-24 10:41:00,
2013-10-24 03:46:00,46.1,33.0,29.74,North,357,0.0,0.0,60,0.00,,---,0.00,VWS V14.01,2013-10-24 10:46:00,
2013-10-24 03:51:00,46.1,33.0,29.74,North,357,0.0,0.0,60,0.00,,---,0.00,VWS V14.01,2013-10-24 10:51:00,
2013-10-24 03:56:00,46.1,33.0,29.74,North,357,0.0,0.0,60,0.00,,---,0.00,VWS V14.01,2013-10-24 10:56:00,
2013-10-24 04:01:00,45.9,32.8,29.74,North,357,0.0,0.0,60,0.00,,---,0.00,VWS V14.01,2013-10-24 11:01:00,
2013-10-24 04:06:00,45.7,32.7,29.74,North,357,0.0,0.0,60,0.00,,---,0.00,VWS V14.01,2013-10-24 11:06:00,
2013-10-24 04:11:00,45.7,32.7,29.74,North,357,0.0,0.0,60,0.00,,---,0.00,VWS V14.01,2013-10-24 11:11:00,
2013-10-24 04:16:00,45.6,32.5,29.74,North,357,0.0,0.0,60,0.00,,---,0.00,VWS V14.01,2013-10-24 11:16:00,
2013-10-24 04:21:00,45.6,32.5,29.74,North,357,0.0,0.0,60,0.00,,---,0.00,VWS V14.01,2013-10-24 11:21:00,
2013-10-24 04:26:00,45.4,32.3,29.74,North,357,0.0,0.0,60,0.00,,---,0.00,VWS V14.01,2013-10-24 11:26:00,
2013-10-24 04:31:00,45.4,32.3,29.77,North,357,0.0,0.0,60,0.00,,---,0.00,VWS V14.01,2013-10-24 11:31:00,
2013-10-24 04:36:00,45.2,32.2,29.77,North,357,0.0,0.0,60,0.00,,---,0.00,VWS V14.01,2013-10-24 11:36:00,
2013-10-24 04:41:00,45.2,32.2,29.77,North,357,0.0,0.0,60,0.00,,---,0.00,VWS V14.01,2013-10-24 11:41:00,
2013-10-24 04:46:00,45.0,32.0,29.77,North,357,0.0,0.0,60,0.00,,---,0.00,VWS V14.01,2013-10-24 11:46:00,
2013-10-24 04:51:00,45.0,32.4,29.77,North,357,0.0,0.0,61,0.00,,---,0.00,VWS V14.01,2013-10-24 11:51:00,
2013-10-24 04:56:00,44.8,31.8,29.77,North,357,0.0,0.0,60,0.00,,---,0.00,VWS V14.01,2013-10-24 11:56:00,
2013-10-24 05:01:00,44.7,31.6,29.77,North,357,0.0,0.0,60,0.00,,---,0.00,VWS V14.01,2013-10-24 12:01:00,
2013-10-24 05:06:00,44.5,31.5,29.77,North,357,0.0,0.0,60,0.00,,---,0.00,VWS V14.01,2013-10-24 12:06:00,
2013-10-24 05:11:00,44.3,31.3,29.77,North,357,0.0,0.0,60,0.00,,---,0.00,VWS V14.01,2013-10-24 12:11:00,
2013-10-24 05:16:00,44.3,31.3,29.77,North,357,0.0,0.0,60,0.00,,---,0.00,VWS V14.01,2013-10-24 12:16:00,
2013-10-24 05:21:00,44.3,31.3,29.77,North,357,0.0,0.0,60,0.00,,---,0.00,VWS V14.01,2013-10-24 12:21:00,
2013-10-24 05:26:00,44.1,31.1,29.77,North,357,0.0,0.0,60,0.00,,---,0.00,VWS V14.01,2013-10-24 12:26:00,
2013-10-24 05:31:00,44.1,31.1,29.77,North,357,0.0,0.0,60,0.00,,---,0.00,VWS V14.01,2013-10-24 12:31:00,
2013-10-24 05:36:00,44.1,31.1,29.77,North,357,0.0,0.0,60,0.00,,---,0.00,VWS V14.01,2013-10-24 12:36:00,
2013-10-24 05:41:00,43.9,31.0,29.77,North,357,0.0,0.0,60,0.00,,---,0.00,VWS V14.01,2013-10-24 12:41:00,
2013-10-24 05:46:00,43.9,31.0,29.77,North,357,0.0,0.0,60,0.00,,---,0.00,VWS V14.01,2013-10-24 12:46:00,
2013-10-24 05:51:00,43.9,31.0,29.77,North,357,0.0,0.0,60,0.00,,---,0.00,VWS V14.01,2013-10-24 12:51:00,
2013-10-24 05:56:00,43.9,31.0,29.77,North,357,0.0,0.0,60,0.00,,---,0.00,VWS V14.01,2013-10-24 12:56:00,
2013-10-24 06:01:00,43.9,31.0,29.77,North,357,0.0,0.0,60,0.00,,---,0.00,VWS V14.01,2013-10-24 13:01:00,
2013-10-24 06:06:00,44.1,31.1,29.77,North,357,0.0,0.0,60,0.00,,---,0.00,VWS V14.01,2013-10-24 13:06:00,
2013-10-24 06:11:00,44.3,31.3,29.77,North,357,0.0,0.0,60,0.00,,---,0.00,VWS V14.01,2013-10-24 13:11:00,
2013-10-24 06:16:00,44.3,31.3,29.77,North,357,0.0,0.0,60,0.00,,---,0.00,VWS V14.01,2013-10-24 13:16:00,
2013-10-24 06:21:00,44.5,31.9,29.77,North,357,0.0,0.0,61,0.00,,---,0.00,VWS V14.01,2013-10-24 13:21:00,
2013-10-24 06:26:00,44.5,31.9,29.77,North,357,0.0,0.0,61,0.00,,---,0.00,VWS V14.01,2013-10-24 13:26:00,
2013-10-24 06:31:00,44.7,32.0,29.77,North,357,0.0,0.0,61,0.00,,---,0.00,VWS V14.01,2013-10-24 13:31:00,
2013-10-24 06:36:00,44.7,32.0,29.77,North,357,0.0,0.0,61,0.00,,---,0.00,VWS V14.01,2013-10-24 13:36:00,
2013-10-24 06:41:00,44.8,32.6,29.77,North,357,0.0,0.0,62,0.00,,---,0.00,VWS V14.01,2013-10-24 13:41:00,
2013-10-24 06:46:00,45.0,32.8,29.77,North,357,0.0,0.0,62,0.00,,---,0.00,VWS V14.01,2013-10-24 13:46:00,
2013-10-24 06:51:00,45.0,32.8,29.77,North,357,0.0,0.0,62,0.00,,---,0.00,VWS V14.01,2013-10-24 13:51:00,
2013-10-24 06:56:00,45.2,33.0,29.77,North,357,0.0,0.0,62,0.00,,---,0.00,VWS V14.01,2013-10-24 13:56:00,
2013-10-24 07:01:00,45.2,33.0,29.77,North,357,0.0,0.0,62,0.00,,---,0.00,VWS V14.01,2013-10-24 14:01:00,
2013-10-24 07:06:00,45.2,33.0,29.77,North,357,0.0,0.0,62,0.00,,---,0.00,VWS V14.01,2013-10-24 14:06:00,
2013-10-24 07:11:00,45.2,33.0,29.77,North,357,0.0,0.0,62,0.00,,---,0.00,VWS V14.01,2013-10-24 14:11:00,
2013-10-24 07:16:00,45.2,33.4,29.77,North,357,0.0,0.0,63,0.00,,---,0.00,VWS V14.01,2013-10-24 14:16:00,
2013-10-24 07:21:00,45.2,33.4,29.77,North,357,0.0,0.0,63,0.00,,---,0.00,VWS V14.01,2013-10-24 14:21:00,
2013-10-24 07:26:00,45.2,33.4,29.77,North,357,0.0,0.0,63,0.00,,---,0.00,VWS V14.01,2013-10-24 14:26:00,
2013-10-24 07:31:00,45.4,33.5,29.77,North,357,0.0,0.0,63,0.00,,---,0.00,VWS V14.01,2013-10-24 14:31:00,
2013-10-24 07:36:00,45.6,34.1,29.77,North,357,0.0,0.0,64,0.00,,---,0.00,VWS V14.01,2013-10-24 14:36:00,
2013-10-24 07:41:00,45.6,34.1,29.77,North,357,0.0,0.0,64,0.00,,---,0.00,VWS V14.01,2013-10-24 14:41:00,
2013-10-24 07:46:00,45.7,34.3,29.77,North,357,0.0,0.0,64,0.00,,---,0.00,VWS V14.01,2013-10-24 14:46:00,
2013-10-24 07:51:00,45.7,34.3,29.77,North,357,0.0,0.0,64,0.00,,---,0.00,VWS V14.01,2013-10-24 14:51:00,
2013-10-24 07:56:00,45.9,34.4,29.77,North,357,0.0,0.0,64,0.00,,---,0.00,VWS V14.01,2013-10-24 14:56:00,
2013-10-24 08:01:00,45.9,34.4,29.77,North,357,0.0,0.0,64,0.00,,---,0.00,VWS V14.01,2013-10-24 15:01:00,
2013-10-24 08:06:00,46.1,35.0,29.77,NNW,333,0.0,0.0,65,0.00,,---,0.00,VWS V14.01,2013-10-24 15:06:00,
2013-10-24 08:11:00,46.1,35.0,29.77,NNW,333,0.0,0.0,65,0.00,,---,0.00,VWS V14.01,2013-10-24 15:11:00,
2013-10-24 08:16:00,45.9,34.8,29.77,NNW,333,0.0,0.0,65,0.00,,---,0.00,VWS V14.01,2013-10-24 15:16:00,
2013-10-24 08:21:00,46.1,35.0,29.77,NNW,333,0.0,0.0,65,0.00,,---,0.00,VWS V14.01,2013-10-24 15:21:00,
2013-10-24 08:26:00,46.1,35.0,29.77,NNW,333,0.0,0.0,65,0.00,,---,0.00,VWS V14.01,2013-10-24 15:26:00,
2013-10-24 08:31:00,46.1,35.0,29.77,NNW,333,0.0,0.0,65,0.00,,---,0.00,VWS V14.01,2013-10-24 15:31:00,
2013-10-24 08:36:00,46.1,35.0,29.77,NNW,333,0.0,0.0,65,0.00,,---,0.00,VWS V14.01,2013-10-24 15:36:00,
2013-10-24 08:41:00,46.3,35.6,29.77,NNW,333,0.0,0.0,66,0.00,,---,0.00,VWS V14.01,2013-10-24 15:41:00,
2013-10-24 08:46:00,46.3,35.6,29.77,NNW,333,0.0,0.0,66,0.00,,---,0.00,VWS V14.01,2013-10-24 15:46:00,
2013-10-24 08:51:00,46.5,35.7,29.77,NNW,333,0.0,0.0,66,0.00,,---,0.00,VWS V14.01,2013-10-24 15:51:00,
2013-10-24 08:56:00,46.6,35.9,29.77,NNW,333,0.0,0.0,66,0.00,,---,0.00,VWS V14.01,2013-10-24 15:56:00,
2013-10-24 09:01:00,46.8,36.5,29.80,NNW,333,0.0,0.0,67,0.00,,---,0.00,VWS V14.01,2013-10-24 16:01:00,
2013-10-24 09:06:00,46.8,36.5,29.80,NNW,333,0.0,0.0,67,0.00,,---,0.00,VWS V14.01,2013-10-24 16:06:00,
2013-10-24 09:11:00,47.0,36.6,29.80,NNW,333,0.0,0.0,67,0.00,,---,0.00,VWS V14.01,2013-10-24 16:11:00,
2013-10-24 09:16:00,47.0,36.6,29.80,NNW,333,0.0,0.0,67,0.00,,---,0.00,VWS V14.01,2013-10-24 16:16:00,
2013-10-24 09:21:00,47.2,36.8,29.80,NNW,333,0.0,0.0,67,0.00,,---,0.00,VWS V14.01,2013-10-24 16:21:00,
2013-10-24 09:26:00,47.4,37.0,29.80,NNW,333,0.0,0.0,67,0.00,,---,0.00,VWS V14.01,2013-10-24 16:26:00,
2013-10-24 09:31:00,47.4,37.0,29.80,NNW,333,0.0,0.0,67,0.00,,---,0.00,VWS V14.01,2013-10-24 16:31:00,
2013-10-24 09:36:00,47.5,37.1,29.80,NNW,333,0.0,0.0,67,0.00,,---,0.00,VWS V14.01,2013-10-24 16:36:00,
2013-10-24 09:41:00,47.7,37.3,29.80,NNW,333,0.0,0.0,67,0.00,,---,0.00,VWS V14.01,2013-10-24 16:41:00,
2013-10-24 09:46:00,47.9,37.9,29.80,NNW,333,0.0,0.0,68,0.00,,---,0.00,VWS V14.01,2013-10-24 16:46:00,
2013-10-24 09:51:00,47.9,37.9,29.80,NNW,333,0.0,0.0,68,0.00,,---,0.00,VWS V14.01,2013-10-24 16:51:00,
2013-10-24 09:56:00,48.1,38.0,29.80,NNW,333,0.0,0.0,68,0.00,,---,0.00,VWS V14.01,2013-10-24 16:56:00,
2013-10-24 10:01:00,48.1,38.0,29.80,NNW,333,0.0,0.0,68,0.00,,---,0.00,VWS V14.01,2013-10-24 17:01:00,
2013-10-24 10:06:00,48.1,38.0,29.80,NNW,333,0.0,0.0,68,0.00,,---,0.00,VWS V14.01,2013-10-24 17:06:00,
2013-10-24 10:11:00,48.3,38.2,29.80,NNW,333,0.0,0.0,68,0.00,,---,0.00,VWS V14.01,2013-10-24 17:11:00,
2013-10-24 10:16:00,48.1,38.0,29.80,NNW,333,0.0,0.0,68,0.00,,---,0.00,VWS V14.01,2013-10-24 17:16:00,
2013-10-24 10:21:00,48.1,38.0,29.80,NNW,333,0.0,0.0,68,0.00,,---,0.00,VWS V14.01,2013-10-24 17:21:00,
2013-10-24 10:26:00,48.3,38.2,29.80,NNW,333,0.0,0.0,68,0.00,,---,0.00,VWS V14.01,2013-10-24 17:26:00,
2013-10-24 10:31:00,48.4,38.8,29.80,SW,216,0.0,0.0,69,0.00,,---,0.00,VWS V14.01,2013-10-24 17:31:00,
2013-10-24 10:36:00,48.6,38.9,29.80,SW,216,0.0,0.0,69,0.00,,---,0.00,VWS V14.01,2013-10-24 17:36:00,
2013-10-24 10:41:00,49.0,38.9,29.80,SW,216,0.0,0.0,68,0.00,,---,0.00,VWS V14.01,2013-10-24 17:41:00,
2013-10-24 10:46:00,49.2,39.1,29.80,WNW,302,0.0,0.0,68,0.00,,---,0.00,VWS V14.01,2013-10-24 17:46:00,
2013-10-24 10:51:00,49.2,39.4,29.80,West,281,0.0,0.0,69,0.00,,---,0.00,VWS V14.01,2013-10-24 17:51:00,
2013-10-24 10:56:00,49.3,39.6,29.80,West,278,0.0,0.0,69,0.00,,---,0.00,VWS V14.01,2013-10-24 17:56:00,
2013-10-24 11:01:00,49.3,39.6,29.80,West,278,0.0,0.0,69,0.00,,---,0.00,VWS V14.01,2013-10-24 18:01:00,
2013-10-24 11:06:00,49.5,39.8,29.80,West,274,0.0,0.0,69,0.00,,---,0.00,VWS V14.01,2013-10-24 18:06:00,
2013-10-24 11:11:00,49.5,39.4,29.80,West,274,0.0,0.0,68,0.00,,---,0.00,VWS V14.01,2013-10-24 18:11:00,
2013-10-24 11:16:00,49.7,39.6,29.80,West,274,0.0,0.0,68,0.00,,---,0.00,VWS V14.01,2013-10-24 18:16:00,
2013-10-24 11:21:00,49.9,39.8,29.80,NW,313,0.0,0.0,68,0.00,,---,0.00,VWS V14.01,2013-10-24 18:21:00,
2013-10-24 11:26:00,49.9,39.8,29.80,NW,313,0.0,0.0,68,0.00,,---,0.00,VWS V14.01,2013-10-24 18:26:00,
2013-10-24 11:31:00,50.1,39.9,29.80,NW,314,0.0,0.0,68,0.00,,---,0.00,VWS V14.01,2013-10-24 18:31:00,
2013-10-24 11:36:00,50.2,40.1,29.80,NW,313,0.0,0.0,68,0.00,,---,0.00,VWS V14.01,2013-10-24 18:36:00,
2013-10-24 11:41:00,50.2,40.1,29.80,NW,315,0.0,0.0,68,0.00,,---,0.00,VWS V14.01,2013-10-24 18:41:00,
2013-10-24 11:46:00,50.6,40.1,29.80,NW,314,0.0,0.0,67,0.00,,---,0.00,VWS V14.01,2013-10-24 18:46:00,
2013-10-24 11:51:00,50.8,40.2,29.80,North,353,0.0,0.0,67,0.00,,---,0.00,VWS V14.01,2013-10-24 18:51:00,
2013-10-24 11:56:00,51.1,40.6,29.80,NNE,19,0.0,0.0,67,0.00,,---,0.00,VWS V14.01,2013-10-24 18:56:00,
2013-10-24 12:01:00,51.3,40.4,29.80,NNE,20,0.0,0.0,66,0.00,,---,0.00,VWS V14.01,2013-10-24 19:01:00,
2013-10-24 12:06:00,51.5,40.5,29.80,NNE,20,0.0,0.0,66,0.00,,---,0.00,VWS V14.01,2013-10-24 19:06:00,
2013-10-24 12:11:00,51.5,39.3,29.80,ESE,117,0.0,0.0,63,0.00,,---,0.00,VWS V14.01,2013-10-24 19:11:00,
2013-10-24 12:16:00,51.7,39.5,29.80,NNE,18,0.0,0.0,63,0.00,,---,0.00,VWS V14.01,2013-10-24 19:16:00,
2013-10-24 12:21:00,51.9,39.7,29.80,West,280,0.0,0.0,63,0.00,,---,0.00,VWS V14.01,2013-10-24 19:21:00,
2013-10-24 12:26:00,51.9,39.3,29.80,WNW,283,0.0,0.0,62,0.00,,---,0.00,VWS V14.01,2013-10-24 19:26:00,
2013-10-24 12:31:00,51.7,37.8,29.80,SE,132,0.0,0.0,59,0.00,,---,0.00,VWS V14.01,2013-10-24 19:31:00,
2013-10-24 12:36:00,51.7,37.4,29.80,SSE,156,0.0,0.0,58,0.00,,---,0.00,VWS V14.01,2013-10-24 19:36:00,
2013-10-24 12:41:00,51.7,37.4,29.80,SE,137,0.0,0.0,58,0.00,,---,0.00,VWS V14.01,2013-10-24 19:41:00,
2013-10-24 12:46:00,51.9,37.6,29.80,SE,137,0.0,0.0,58,0.00,,---,0.00,VWS V14.01,2013-10-24 19:46:00,
2013-10-24 12:51:00,51.9,37.6,29.80,SSE,162,0.0,0.0,58,0.00,,---,0.00,VWS V14.01,2013-10-24 19:51:00,
2013-10-24 12:56:00,52.0,37.3,29.80,SSW,210,0.0,0.0,57,0.00,,---,0.00,VWS V14.01,2013-10-24 19:56:00,
2013-10-24 13:01:00,52.2,37.9,29.80,SSW,210,0.0,0.0,58,0.00,,---,0.00,VWS V14.01,2013-10-24 20:01:00,
2013-10-24 13:06:00,52.6,37.8,29.80,NW,304,0.0,0.0,57,0.00,,---,0.00,VWS V14.01,2013-10-24 20:06:00,
2013-10-24 13:11:00,52.9,38.1,29.80,NW,304,0.0,0.0,57,0.00,,---,0.00,VWS V14.01,2013-10-24 20:11:00,
2013-10-24 13:16:00,53.1,38.3,29.77,NNW,330,0.0,0.0,57,0.00,,---,0.00,VWS V14.01,2013-10-24 20:16:00,
2013-10-24 13:21:00,53.5,38.6,29.77,NNW,330,0.0,0.0,57,0.00,,---,0.00,VWS V14.01,2013-10-24 20:21:00,
2013-10-24 13:26:00,53.7,38.4,29.77,North,0,0.0,0.0,56,0.00,,---,0.00,VWS V14.01,2013-10-24 20:26:00,
2013-10-24 13:31:00,53.8,38.1,29.77,North,1,0.0,0.0,55,0.00,,---,0.00,VWS V14.01,2013-10-24 20:31:00,
2013-10-24 13:36:00,54.2,37.9,29.77,WSW,257,0.0,0.0,54,0.00,,---,0.00,VWS V14.01,2013-10-24 20:36:00,
2013-10-24 13:41:00,54.2,37.0,29.77,North,7,0.0,0.0,52,0.00,,---,0.00,VWS V14.01,2013-10-24 20:41:00,
2013-10-24 13:46:00,54.4,36.7,29.77,NNE,17,0.0,0.0,51,0.00,,---,0.00,VWS V14.01,2013-10-24 20:46:00,
2013-10-24 13:51:00,54.6,36.8,29.77,NNE,17,0.0,0.0,51,0.00,,---,0.00,VWS V14.01,2013-10-24 20:51:00,
2013-10-24 13:56:00,54.9,37.2,29.77,WSW,252,0.0,0.0,51,0.00,,---,0.00,VWS V14.01,2013-10-24 20:56:00,
2013-10-24 14:01:00,55.1,36.8,29.77,WSW,245,0.0,0.0,50,0.00,,---,0.00,VWS V14.01,2013-10-24 21:01:00,
2013-10-24 14:06:00,55.3,36.5,29.77,WSW,245,0.0,0.0,49,0.00,,---,0.00,VWS V14.01,2013-10-24 21:06:00,
2013-10-24 14:11:00,55.5,36.1,29.77,North,2,0.0,0.0,48,0.00,,---,0.00,VWS V14.01,2013-10-24 21:11:00,
2013-10-24 14:16:00,55.6,36.3,29.77,WNW,298,0.0,0.0,48,0.00,,---,0.00,VWS V14.01,2013-10-24 21:16:00,
2013-10-24 14:21:00,55.8,35.4,29.77,SE,133,0.0,0.0,46,0.00,,---,0.00,VWS V14.01,2013-10-24 21:21:00,
2013-10-24 14:26:00,56.2,35.1,29.77,NNE,21,0.0,0.0,45,0.00,,---,0.00,VWS V14.01,2013-10-24 21:26:00,
2013-10-24 14:31:00,56.2,35.1,29.77,NNW,334,0.0,0.0,45,0.00,,---,0.00,VWS V14.01,2013-10-24 21:31:00,
2013-10-24 14:36:00,56.4,35.3,29.77,NNW,334,0.0,0.0,45,0.00,,---,0.00,VWS V14.01,2013-10-24 21:36:00,
2013-10-24 14:41:00,56.4,35.3,29.77,WNW,284,0.0,0.0,45,0.00,,---,0.00,VWS V14.01,2013-10-24 21:41:00,
2013-10-24 14:46:00,56.7,35.6,29.77,North,6,0.0,0.0,45,0.00,,---,0.00,VWS V14.01,2013-10-24 21:46:00,
2013-10-24 14:51:00,56.9,35.2,29.77,ENE,69,0.0,0.0,44,0.00,,---,0.00,VWS V14.01,2013-10-24 21:51:00,
2013-10-24 14:56:00,57.1,35.4,29.77,North,357,0.0,0.0,44,0.00,,---,0.00,VWS V14.01,2013-10-24 21:56:00,
2013-10-24 15:01:00,57.1,36.0,29.77,WNW,291,0.0,0.0,45,0.00,,---,0.00,VWS V14.01,2013-10-24 22:01:00,
2013-10-24 15:05:00,57.3,36.1,29.77,SE,124,0.0,0.0,45,0.00,,---,0.00,VWS V14.01,2013-10-24 22:05:00,
2013-10-24 15:10:00,57.4,35.7,29.77,SE,124,0.0,0.0,44,0.00,,---,0.00,VWS V14.01,2013-10-24 22:10:00,
2013-10-24 15:15:00,57.6,35.9,29.77,NE,37,0.0,0.0,44,0.00,,---,0.00,VWS V14.01,2013-10-24 22:15:00,
2013-10-24 15:20:00,57.8,35.5,29.77,NE,37,0.0,0.0,43,0.00,,---,0.00,VWS V14.01,2013-10-24 22:20:00,
2013-10-24 15:25:00,58.0,35.6,29.77,East,86,0.0,0.0,43,0.00,,---,0.00,VWS V14.01,2013-10-24 22:25:00,
2013-10-24 15:30:00,58.2,35.2,29.77,NNE,16,0.0,0.0,42,0.00,,---,0.00,VWS V14.01,2013-10-24 22:30:00,
2013-10-24 15:35:00,58.3,34.8,29.77,East,101,0.0,0.0,41,0.00,,---,0.00,VWS V14.01,2013-10-24 22:35:00,
2013-10-24 15:40:00,58.3,34.8,29.77,East,101,0.0,0.0,41,0.00,,---,0.00,VWS V14.01,2013-10-24 22:40:00,
2013-10-24 15:45:00,58.5,34.9,29.77,SSE,150,0.0,0.0,41,0.00,,---,0.00,VWS V14.01,2013-10-24 22:45:00,
2013-10-24 15:50:00,58.7,35.1,29.77,North,357,0.0,0.0,41,0.00,,---,0.00,VWS V14.01,2013-10-24 22:50:00,
2013-10-24 15:55:00,58.7,35.1,29.77,NNE,22,0.0,0.0,41,0.00,,---,0.00,VWS V14.01,2013-10-24 22:55:00,
2013-10-24 16:00:00,58.9,35.2,29.77,ESE,123,0.0,0.0,41,0.00,,---,0.00,VWS V14.01,2013-10-24 23:00:00,
2013-10-24 16:05:00,58.9,35.2,29.77,ESE,119,0.0,0.0,41,0.00,,---,0.00,VWS V14.01,2013-10-24 23:05:00,
2013-10-24 16:10:00,58.9,35.8,29.77,ESE,120,0.0,0.0,42,0.00,,---,0.00,VWS V14.01,2013-10-24 23:10:00,
2013-10-24 16:15:00,58.9,35.2,29.77,ESE,119,0.0,0.0,41,0.00,,---,0.00,VWS V14.01,2013-10-24 23:15:00,
2013-10-24 16:20:00,58.7,35.1,29.77,ESE,120,0.0,0.0,41,0.00,,---,0.00,VWS V14.01,2013-10-24 23:20:00,
2013-10-24 16:25:00,58.9,35.2,29.77,ESE,119,0.0,0.0,41,0.00,,---,0.00,VWS V14.01,2013-10-24 23:25:00,
2013-10-24 16:30:00,59.1,35.4,29.77,ESE,120,0.0,0.0,41,0.00,,---,0.00,VWS V14.01,2013-10-24 23:30:00,
2013-10-24 16:35:00,59.1,35.4,29.77,ESE,119,0.0,0.0,41,0.00,,---,0.00,VWS V14.01,2013-10-24 23:35:00,
2013-10-24 16:40:00,59.1,35.4,29.77,ESE,120,0.0,0.0,41,0.00,,---,0.00,VWS V14.01,2013-10-24 23:40:00,
2013-10-24 16:45:00,59.1,35.4,29.77,SE,129,0.0,0.0,41,0.00,,---,0.00,VWS V14.01,2013-10-24 23:45:00,
2013-10-24 16:50:00,59.1,35.4,29.77,SE,129,0.0,0.0,41,0.00,,---,0.00,VWS V14.01,2013-10-24 23:50:00,
2013-10-24 16:55:00,59.1,35.4,29.77,SE,130,0.0,0.0,41,0.00,,---,0.00,VWS V14.01,2013-10-24 23:55:00,
2013-10-24 17:00:00,59.1,35.4,29.77,SE,129,0.0,0.0,41,0.00,,---,0.00,VWS V14.01,2013-10-25 00:00:00,
2013-10-24 17:05:00,59.1,35.4,29.77,SE,129,0.0,0.0,41,0.00,,---,0.00,VWS V14.01,2013-10-25 00:05:00,
2013-10-24 17:10:00,58.9,35.2,29.77,SE,129,0.0,0.0,41,0.00,,---,0.00,VWS V14.01,2013-10-25 00:10:00,
2013-10-24 17:15:00,58.7,35.7,29.77,SE,129,0.0,0.0,42,0.00,,---,0.00,VWS V14.01,2013-10-25 00:15:00,
2013-10-24 17:20:00,58.7,35.7,29.77,SSE,147,0.0,0.0,42,0.00,,---,0.00,VWS V14.01,2013-10-25 00:20:00,
2013-10-24 17:25:00,58.5,36.7,29.77,SSE,147,0.0,0.0,44,0.00,,---,0.00,VWS V14.01,2013-10-25 00:25:00,
2013-10-24 17:30:00,58.5,36.7,29.77,SSE,147,0.0,0.0,44,0.00,,---,0.00,VWS V14.01,2013-10-25 00:30:00,
2013-10-24 17:35:00,58.3,36.5,29.77,SSE,147,0.0,0.0,44,0.00,,---,0.00,VWS V14.01,2013-10-25 00:35:00,
2013-10-24 17:40:00,58.2,36.9,29.77,SSE,147,0.0,0.0,45,0.00,,---,0.00,VWS V14.01,2013-10-25 00:40:00,
2013-10-24 17:45:00,58.0,36.8,29.77,SSE,147,0.0,0.0,45,0.00,,---,0.00,VWS V14.01,2013-10-25 00:45:00,
2013-10-24 17:50:00,57.8,36.6,29.77,SSE,147,0.0,0.0,45,0.00,,---,0.00,VWS V14.01,2013-10-25 00:50:00,
2013-10-24 17:55:00,57.6,37.0,29.77,SE,137,0.0,0.0,46,0.00,,---,0.00,VWS V14.01,2013-10-25 00:55:00,
2013-10-24 18:00:00,57.4,36.8,29.77,SE,135,0.0,0.0,46,0.00,,---,0.00,VWS V14.01,2013-10-25 01:00:00,
2013-10-24 18:05:00,57.1,37.1,29.77,SE,135,0.0,0.0,47,0.00,,---,0.00,VWS V14.01,2013-10-25 01:05:00,
2013-10-24 18:10:00,56.7,36.7,29.77,SE,135,0.0,0.0,47,0.00,,---,0.00,VWS V14.01,2013-10-25 01:10:00,
2013-10-24 18:15:00,56.4,36.4,29.77,SE,145,0.0,0.0,47,0.00,,---,0.00,VWS V14.01,2013-10-25 01:15:00,
2013-10-24 18:20:00,56.2,36.8,29.77,SE,145,0.0,0.0,48,0.00,,---,0.00,VWS V14.01,2013-10-25 01:20:00,
2013-10-24 18:25:00,56.0,36.6,29.77,SE,127,0.0,0.0,48,0.00,,---,0.00,VWS V14.01,2013-10-25 01:25:00,
2013-10-24 18:30:00,55.8,37.5,29.77,SE,127,0.0,0.0,50,0.00,,---,0.00,VWS V14.01,2013-10-25 01:30:00,
2013-10-24 18:35:00,55.6,37.8,29.77,SE,127,0.0,0.0,51,0.00,,---,0.00,VWS V14.01,2013-10-25 01:35:00,
2013-10-24 18:40:00,55.5,37.7,29.77,SE,127,0.0,0.0,51,0.00,,---,0.00,VWS V14.01,2013-10-25 01:40:00,
2013-10-24 18:45:00,55.3,38.0,29.80,SE,127,0.0,0.0,52,0.00,,---,0.00,VWS V14.01,2013-10-25 01:45:00,
2013-10-24 18:50:00,55.1,37.8,29.80,SE,127,0.0,0.0,52,0.00,,---,0.00,VWS V14.01,2013-10-25 01:50:00,
2013-10-24 18:55:00,55.1,37.8,29.80,SE,127,0.0,0.0,52,0.00,,---,0.00,VWS V14.01,2013-10-25 01:55:00,
2013-10-24 19:00:00,54.9,38.1,29.80,SE,127,0.0,0.0,53,0.00,,---,0.00,VWS V14.01,2013-10-25 02:00:00,
2013-10-24 19:05:00,54.9,38.1,29.80,SE,127,0.0,0.0,53,0.00,,---,0.00,VWS V14.01,2013-10-25 02:05:00,
2013-10-24 19:10:00,54.7,38.4,29.80,SE,127,0.0,0.0,54,0.00,,---,0.00,VWS V14.01,2013-10-25 02:10:00,
2013-10-24 19:15:00,54.6,38.3,29.80,SE,127,0.0,0.0,54,0.00,,---,0.00,VWS V14.01,2013-10-25 02:15:00,
2013-10-24 19:20:00,54.4,38.1,29.80,SE,127,0.0,0.0,54,0.00,,---,0.00,VWS V14.01,2013-10-25 02:20:00,
2013-10-24 19:25:00,54.2,37.9,29.80,SE,127,0.0,0.0,54,0.00,,---,0.00,VWS V14.01,2013-10-25 02:25:00,
2013-10-24 19:30:00,54.0,38.2,29.80,SE,127,0.0,0.0,55,0.00,,---,0.00,VWS V14.01,2013-10-25 02:30:00,
2013-10-24 19:35:00,53.8,38.1,29.80,SE,127,0.0,0.0,55,0.00,,---,0.00,VWS V14.01,2013-10-25 02:35:00,
2013-10-24 19:40:00,53.8,38.1,29.80,SE,127,0.0,0.0,55,0.00,,---,0.00,VWS V14.01,2013-10-25 02:40:00,
2013-10-24 19:45:00,53.7,37.9,29.80,SE,127,0.0,0.0,55,0.00,,---,0.00,VWS V14.01,2013-10-25 02:45:00,
2013-10-24 19:50:00,53.5,37.7,29.80,SE,127,0.0,0.0,55,0.00,,---,0.00,VWS V14.01,2013-10-25 02:50:00,
2013-10-24 19:55:00,53.5,37.7,29.80,SE,127,0.0,0.0,55,0.00,,---,0.00,VWS V14.01,2013-10-25 02:55:00,
2013-10-24 20:00:00,53.3,37.6,29.80,SE,128,0.0,0.0,55,0.00,,---,0.00,VWS V14.01,2013-10-25 03:00:00,
2013-10-24 20:05:00,53.3,38.0,29.80,SE,127,0.0,0.0,56,0.00,,---,0.00,VWS V14.01,2013-10-25 03:05:00,
2013-10-24 20:10:00,53.1,37.8,29.80,SE,127,0.0,0.0,56,0.00,,---,0.00,VWS V14.01,2013-10-25 03:10:00,
2013-10-24 20:15:00,53.1,37.8,29.80,SE,127,0.0,0.0,56,0.00,,---,0.00,VWS V14.01,2013-10-25 03:15:00,
2013-10-24 20:20:00,53.3,38.0,29.80,SE,127,0.0,0.0,56,0.00,,---,0.00,VWS V14.01,2013-10-25 03:20:00,
2013-10-24 20:25:00,53.5,38.2,29.80,SE,127,0.0,0.0,56,0.00,,---,0.00,VWS V14.01,2013-10-25 03:25:00,
2013-10-24 20:30:00,53.3,37.6,29.83,SE,127,0.0,0.0,55,0.00,,---,0.00,VWS V14.01,2013-10-25 03:30:00,
2013-10-24 20:35:00,53.3,38.0,29.83,SE,127,0.0,0.0,56,0.00,,---,0.00,VWS V14.01,2013-10-25 03:35:00,
2013-10-24 20:40:00,53.3,37.6,29.83,SE,127,0.0,0.0,55,0.00,,---,0.00,VWS V14.01,2013-10-25 03:40:00,
2013-10-24 20:45:00,53.3,37.6,29.80,SE,127,0.0,0.0,55,0.00,,---,0.00,VWS V14.01,2013-10-25 03:45:00,
2013-10-24 20:50:00,52.9,36.8,29.80,SE,127,0.0,0.0,54,0.00,,---,0.00,VWS V14.01,2013-10-25 03:50:00,
2013-10-24 20:55:00,52.6,36.4,29.80,SE,127,0.0,0.0,54,0.00,,---,0.00,VWS V14.01,2013-10-25 03:55:00,
2013-10-24 21:00:00,52.4,36.7,29.83,SE,128,0.0,0.0,55,0.00,,---,0.00,VWS V14.01,2013-10-25 04:00:00,
2013-10-24 21:01:00,52.4,36.7,29.83,SE,127,0.0,0.0,55,0.00,,---,0.00,VWS V14.01,2013-10-25 04:01:00,
2013-10-24 21:02:00,52.4,36.7,29.83,SE,127,0.0,0.0,55,0.00,,---,0.00,VWS V14.01,2013-10-25 04:02:00,
2013-10-24 21:07:00,52.8,37.1,29.83,SE,127,0.0,0.0,55,0.00,,---,0.00,VWS V14.01,2013-10-25 04:07:00,
2013-10-24 21:12:00,52.9,37.2,29.83,SE,127,0.0,0.0,55,0.00,,---,0.00,VWS V14.01,2013-10-25 04:12:00,
2013-10-24 21:17:00,53.1,37.4,29.83,SE,127,0.0,0.0,55,0.00,,---,0.00,VWS V14.01,2013-10-25 04:17:00,
2013-10-24 21:22:00,52.9,37.2,29.83,SE,127,0.0,0.0,55,0.00,,---,0.00,VWS V14.01,2013-10-25 04:22:00,
2013-10-24 21:27:00,52.4,36.7,29.83,SE,127,0.0,0.0,55,0.00,,---,0.00,VWS V14.01,2013-10-25 04:27:00,
2013-10-24 21:32:00,52.2,36.6,29.83,SE,127,0.0,0.0,55,0.00,,---,0.00,VWS V14.01,2013-10-25 04:32:00,
2013-10-24 21:37:00,52.4,36.7,29.83,SE,127,0.0,0.0,55,0.00,,---,0.00,VWS V14.01,2013-10-25 04:37:00,
2013-10-24 21:42:00,52.4,36.7,29.83,SE,127,0.0,0.0,55,0.00,,---,0.00,VWS V14.01,2013-10-25 04:42:00,
2013-10-24 21:47:00,52.2,36.6,29.83,SE,127,0.0,0.0,55,0.00,,---,0.00,VWS V14.01,2013-10-25 04:47:00,
2013-10-24 21:52:00,51.9,36.2,29.83,SE,128,0.0,0.0,55,0.00,,---,0.00,VWS V14.01,2013-10-25 04:52:00,
2013-10-24 21:57:00,51.5,35.9,29.83,SE,127,0.0,0.0,55,0.00,,---,0.00,VWS V14.01,2013-10-25 04:57:00,
2013-10-24 22:02:00,51.1,35.5,29.83,SE,128,0.0,0.0,55,0.00,,---,0.00,VWS V14.01,2013-10-25 05:02:00,
2013-10-24 22:07:00,51.3,35.7,29.83,SE,127,0.0,0.0,55,0.00,,---,0.00,VWS V14.01,2013-10-25 05:07:00,
2013-10-24 22:12:00,51.5,36.3,29.83,SE,127,0.0,0.0,56,0.00,,---,0.00,VWS V14.01,2013-10-25 05:12:00,
2013-10-24 22:16:00,51.7,36.5,29.83,SE,127,0.0,0.0,56,0.00,,---,0.00,VWS V14.01,2013-10-25 05:16:00,
2013-10-24 22:21:00,51.3,35.7,29.83,SE,127,0.0,0.0,55,0.00,,---,0.00,VWS V14.01,2013-10-25 05:21:00,
2013-10-24 22:26:00,51.0,35.4,29.85,SE,127,0.0,0.0,55,0.00,,---,0.00,VWS V14.01,2013-10-25 05:26:00,
2013-10-24 22:31:00,50.6,35.5,29.85,SE,127,0.0,0.0,56,0.00,,---,0.00,VWS V14.01,2013-10-25 05:31:00,
2013-10-24 22:36:00,50.4,35.3,29.85,SE,127,0.0,0.0,56,0.00,,---,0.00,VWS V14.01,2013-10-25 05:36:00,
2013-10-24 22:41:00,50.2,35.6,29.85,SE,127,0.0,0.0,57,0.00,,---,0.00,VWS V14.01,2013-10-25 05:41:00,
2013-10-24 22:46:00,50.1,35.4,29.85,SE,127,0.0,0.0,57,0.00,,---,0.00,VWS V14.01,2013-10-25 05:46:00,
2013-10-24 22:51:00,49.9,35.3,29.85,SE,127,0.0,0.0,57,0.00,,---,0.00,VWS V14.01,2013-10-25 05:51:00,
2013-10-24 22:56:00,49.5,34.9,29.85,SE,127,0.0,0.0,57,0.00,,---,0.00,VWS V14.01,2013-10-25 05:56:00,
2013-10-24 23:01:00,49.3,34.8,29.85,SE,127,0.0,0.0,57,0.00,,---,0.00,VWS V14.01,2013-10-25 06:01:00,
2013-10-24 23:06:00,49.2,34.6,29.85,SE,127,0.0,0.0,57,0.00,,---,0.00,VWS V14.01,2013-10-25 06:06:00,
2013-10-24 23:11:00,49.0,34.9,29.85,SE,127,0.0,0.0,58,0.00,,---,0.00,VWS V14.01,2013-10-25 06:11:00,
2013-10-24 23:16:00,48.8,34.3,29.85,SE,127,0.0,0.0,57,0.00,,---,0.00,VWS V14.01,2013-10-25 06:16:00,
2013-10-24 23:21:00,48.6,34.5,29.85,SE,127,0.0,0.0,58,0.00,,---,0.00,VWS V14.01,2013-10-25 06:21:00,
2013-10-24 23:26:00,48.4,34.4,29.85,SE,127,0.0,0.0,58,0.00,,---,0.00,VWS V14.01,2013-10-25 06:26:00,
2013-10-24 23:31:00,48.3,34.2,29.85,SE,127,0.0,0.0,58,0.00,,---,0.00,VWS V14.01,2013-10-25 06:31:00,
2013-10-24 23:36:00,48.3,34.2,29.85,SE,127,0.0,0.0,58,0.00,,---,0.00,VWS V14.01,2013-10-25 06:36:00,
2013-10-24 23:41:00,48.1,34.5,29.85,SE,127,0.0,0.0,59,0.00,,---,0.00,VWS V14.01,2013-10-25 06:41:00,
2013-10-24 23:46:00,47.9,34.3,29.85,SE,127,0.0,0.0,59,0.00,,---,0.00,VWS V14.01,2013-10-25 06:46:00,
2013-10-24 23:51:00,47.7,34.1,29.85,SE,127,0.0,0.0,59,0.00,,---,0.00,VWS V14.01,2013-10-25 06:51:00,
2013-10-24 23:56:00,47.5,33.9,29.85,SE,127,0.0,0.0,59,0.00,,---,0.00,VWS V14.01,2013-10-25 06:56:00,